sensor_id;sensor_type;location;lat;lon;timestamp;pressure;altitude;pressure_sealevel;temperature;humidity
29121;BME280;16191;49.548;8.658;2024-02-16T00:01:41;100160.88;;;13.09;100.00
29121;BME280;16191;49.548;8.658;2024-02-16T00:04:08;100157.41;;;13.08;100.00
29121;BME280;16191;49.548;8.658;2024-02-16T00:06:35;100151.50;;;13.04;100.00
29121;BME280;16191;49.548;8.658;2024-02-16T00:09:02;100149.88;;;13.02;100.00
29121;BME280;16191;49.548;8.658;2024-02-16T00:11:29;100153.06;;;12.91;100.00
29121;BME280;16191;49.548;8.658;2024-02-16T00:13:56;100143.38;;;12.93;100.00
29121;BME280;16191;49.548;8.658;2024-02-16T00:16:23;100140.81;;;12.92;100.00
29121;BME280;16191;49.548;8.658;2024-02-16T00:18:49;100150.13;;;12.97;100.00
29121;BME280;16191;49.548;8.658;2024-02-16T00:21:16;100154.84;;;12.91;100.00
29121;BME280;16191;49.548;8.658;2024-02-16T00:23:43;100156.00;;;12.85;100.00
29121;BME280;16191;49.548;8.658;2024-02-16T00:26:11;100145.13;;;12.93;100.00
29121;BME280;16191;49.548;8.658;2024-02-16T00:28:38;100145.06;;;12.94;100.00
29121;BME280;16191;49.548;8.658;2024-02-16T00:31:05;100153.75;;;12.95;100.00
29121;BME280;16191;49.548;8.658;2024-02-16T00:33:33;100151.53;;;12.87;100.00
29121;BME280;16191;49.548;8.658;2024-02-16T00:36:00;100155.06;;;12.86;100.00
29121;BME280;16191;49.548;8.658;2024-02-16T00:38:27;100139.06;;;12.92;100.00
29121;BME280;16191;49.548;8.658;2024-02-16T00:40:54;100138.91;;;12.95;100.00
29121;BME280;16191;49.548;8.658;2024-02-16T00:43:20;100137.19;;;12.94;100.00
29121;BME280;16191;49.548;8.658;2024-02-16T00:45:47;100144.13;;;12.95;100.00
29121;BME280;16191;49.548;8.658;2024-02-16T00:48:15;100137.34;;;12.91;100.00
29121;BME280;16191;49.548;8.658;2024-02-16T00:50:42;100127.88;;;12.89;100.00
29121;BME280;16191;49.548;8.658;2024-02-16T00:53:10;100125.34;;;12.87;100.00
29121;BME280;16191;49.548;8.658;2024-02-16T00:55:36;100130.50;;;12.89;100.00
29121;BME280;16191;49.548;8.658;2024-02-16T00:58:04;100130.56;;;12.87;100.00
29121;BME280;16191;49.548;8.658;2024-02-16T01:00:31;100131.03;;;12.78;100.00
29121;BME280;16191;49.548;8.658;2024-02-16T01:02:58;100124.44;;;12.71;100.00
29121;BME280;16191;49.548;8.658;2024-02-16T01:05:24;100119.91;;;12.75;100.00
29121;BME280;16191;49.548;8.658;2024-02-16T01:07:51;100117.22;;;12.76;100.00
29121;BME280;16191;49.548;8.658;2024-02-16T01:10:18;100119.56;;;12.81;100.00
29121;BME280;16191;49.548;8.658;2024-02-16T01:12:45;100119.56;;;12.81;100.00
29121;BME280;16191;49.548;8.658;2024-02-16T01:15:11;100121.84;;;12.71;100.00
29121;BME280;16191;49.548;8.658;2024-02-16T01:17:38;100125.44;;;12.68;100.00
29121;BME280;16191;49.548;8.658;2024-02-16T01:20:06;100128.22;;;12.65;100.00
29121;BME280;16191;49.548;8.658;2024-02-16T01:22:38;100123.13;;;12.62;100.00
29121;BME280;16191;49.548;8.658;2024-02-16T01:25:06;100129.59;;;12.73;100.00
29121;BME280;16191;49.548;8.658;2024-02-16T01:27:34;100133.78;;;12.77;100.00
29121;BME280;16191;49.548;8.658;2024-02-16T01:30:02;100140.59;;;12.79;100.00
29121;BME280;16191;49.548;8.658;2024-02-16T01:32:30;100142.09;;;12.67;100.00
29121;BME280;16191;49.548;8.658;2024-02-16T01:34:56;100143.22;;;12.79;100.00
29121;BME280;16191;49.548;8.658;2024-02-16T01:37:24;100137.50;;;12.88;100.00
29121;BME280;16191;49.548;8.658;2024-02-16T01:39:51;100140.91;;;12.90;100.00
29121;BME280;16191;49.548;8.658;2024-02-16T01:42:19;100141.75;;;12.91;100.00
29121;BME280;16191;49.548;8.658;2024-02-16T01:44:45;100139.13;;;12.91;100.00
29121;BME280;16191;49.548;8.658;2024-02-16T01:47:12;100138.34;;;12.89;100.00
29121;BME280;16191;49.548;8.658;2024-02-16T01:49:39;100139.19;;;12.89;100.00
29121;BME280;16191;49.548;8.658;2024-02-16T01:52:06;100137.75;;;12.84;100.00
29121;BME280;16191;49.548;8.658;2024-02-16T01:54:33;100137.66;;;12.85;100.00
29121;BME280;16191;49.548;8.658;2024-02-16T01:57:00;100138.91;;;12.78;100.00
29121;BME280;16191;49.548;8.658;2024-02-16T01:59:28;100133.44;;;12.83;100.00
29121;BME280;16191;49.548;8.658;2024-02-16T02:01:55;100136.19;;;12.80;100.00
29121;BME280;16191;49.548;8.658;2024-02-16T02:04:22;100140.84;;;12.75;100.00
29121;BME280;16191;49.548;8.658;2024-02-16T02:06:49;100146.75;;;12.78;100.00
29121;BME280;16191;49.548;8.658;2024-02-16T02:09:16;100135.63;;;12.75;100.00
29121;BME280;16191;49.548;8.658;2024-02-16T02:11:43;100131.53;;;12.69;100.00
29121;BME280;16191;49.548;8.658;2024-02-16T02:14:10;100137.78;;;12.66;100.00
29121;BME280;16191;49.548;8.658;2024-02-16T02:16:38;100128.91;;;12.69;100.00
29121;BME280;16191;49.548;8.658;2024-02-16T02:19:20;100129.91;;;12.66;100.00
29121;BME280;16191;49.548;8.658;2024-02-16T02:21:47;100135.22;;;12.65;100.00
29121;BME280;16191;49.548;8.658;2024-02-16T02:24:34;100134.38;;;12.64;100.00
29121;BME280;16191;49.548;8.658;2024-02-16T02:27:21;100132.75;;;12.62;100.00
29121;BME280;16191;49.548;8.658;2024-02-16T02:30:08;100126.41;;;12.50;100.00
29121;BME280;16191;49.548;8.658;2024-02-16T02:32:55;100128.09;;;12.51;100.00
29121;BME280;16191;49.548;8.658;2024-02-16T02:35:42;100125.22;;;12.56;100.00
29121;BME280;16191;49.548;8.658;2024-02-16T02:38:29;100114.59;;;12.59;100.00
29121;BME280;16191;49.548;8.658;2024-02-16T02:40:56;100127.69;;;12.59;100.00
29121;BME280;16191;49.548;8.658;2024-02-16T02:43:23;100118.22;;;12.56;100.00
29121;BME280;16191;49.548;8.658;2024-02-16T02:45:50;100123.44;;;12.56;100.00
29121;BME280;16191;49.548;8.658;2024-02-16T02:48:16;100111.69;;;12.48;100.00
29121;BME280;16191;49.548;8.658;2024-02-16T02:50:43;100113.09;;;12.55;100.00
29121;BME280;16191;49.548;8.658;2024-02-16T02:53:10;100109.50;;;12.56;100.00
29121;BME280;16191;49.548;8.658;2024-02-16T02:55:36;100114.66;;;12.57;100.00
29121;BME280;16191;49.548;8.658;2024-02-16T02:58:03;100114.66;;;12.57;100.00
29121;BME280;16191;49.548;8.658;2024-02-16T03:00:30;100118.06;;;12.59;100.00
29121;BME280;16191;49.548;8.658;2024-02-16T03:02:57;100113.81;;;12.57;100.00
29121;BME280;16191;49.548;8.658;2024-02-16T03:05:24;100115.78;;;12.53;100.00
29121;BME280;16191;49.548;8.658;2024-02-16T03:07:50;100109.22;;;12.45;100.00
29121;BME280;16191;49.548;8.658;2024-02-16T03:10:19;100102.22;;;12.45;100.00
29121;BME280;16191;49.548;8.658;2024-02-16T03:12:48;100099.75;;;12.42;100.00
29121;BME280;16191;49.548;8.658;2024-02-16T03:15:16;100097.38;;;12.38;100.00
29121;BME280;16191;49.548;8.658;2024-02-16T03:17:44;100104.53;;;12.34;100.00
29121;BME280;16191;49.548;8.658;2024-02-16T03:20:11;100096.84;;;12.31;100.00
29121;BME280;16191;49.548;8.658;2024-02-16T03:22:37;100103.16;;;12.27;100.00
29121;BME280;16191;49.548;8.658;2024-02-16T03:25:04;100109.38;;;12.24;100.00
29121;BME280;16191;49.548;8.658;2024-02-16T03:27:31;100105.00;;;12.25;100.00
29121;BME280;16191;49.548;8.658;2024-02-16T03:29:58;100115.31;;;12.28;100.00
29121;BME280;16191;49.548;8.658;2024-02-16T03:32:26;100110.00;;;12.29;100.00
29121;BME280;16191;49.548;8.658;2024-02-16T03:34:52;100105.84;;;12.25;100.00
29121;BME280;16191;49.548;8.658;2024-02-16T03:37:19;100112.00;;;12.24;100.00
29121;BME280;16191;49.548;8.658;2024-02-16T03:39:46;100113.69;;;12.25;100.00
29121;BME280;16191;49.548;8.658;2024-02-16T03:42:12;100113.44;;;12.13;100.00
29121;BME280;16191;49.548;8.658;2024-02-16T03:44:40;100120.28;;;12.15;100.00
29121;BME280;16191;49.548;8.658;2024-02-16T03:47:06;100123.59;;;12.19;100.00
29121;BME280;16191;49.548;8.658;2024-02-16T03:49:35;100128.91;;;12.17;100.00
29121;BME280;16191;49.548;8.658;2024-02-16T03:52:02;100126.38;;;12.16;100.00
29121;BME280;16191;49.548;8.658;2024-02-16T03:54:29;100127.34;;;12.13;100.00
29121;BME280;16191;49.548;8.658;2024-02-16T03:56:57;100121.53;;;12.08;100.00
29121;BME280;16191;49.548;8.658;2024-02-16T03:59:24;100124.34;;;12.04;100.00
29121;BME280;16191;49.548;8.658;2024-02-16T04:01:51;100127.06;;;12.02;100.00
29121;BME280;16191;49.548;8.658;2024-02-16T04:04:18;100130.28;;;12.07;100.00
29121;BME280;16191;49.548;8.658;2024-02-16T04:06:45;100128.41;;;11.92;100.00
29121;BME280;16191;49.548;8.658;2024-02-16T04:09:13;100133.16;;;11.84;100.00
29121;BME280;16191;49.548;8.658;2024-02-16T04:11:40;100136.41;;;11.89;100.00
29121;BME280;16191;49.548;8.658;2024-02-16T04:14:06;100137.25;;;11.89;100.00
29121;BME280;16191;49.548;8.658;2024-02-16T04:16:34;100136.50;;;11.87;100.00
29121;BME280;16191;49.548;8.658;2024-02-16T04:19:01;100143.16;;;11.93;100.00
29121;BME280;16191;49.548;8.658;2024-02-16T04:21:28;100139.88;;;11.89;100.00
29121;BME280;16191;49.548;8.658;2024-02-16T04:23:55;100143.50;;;11.87;100.00
29121;BME280;16191;49.548;8.658;2024-02-16T04:26:22;100143.69;;;11.82;100.00
29121;BME280;16191;49.548;8.658;2024-02-16T04:28:48;100147.00;;;11.67;100.00
29121;BME280;16191;49.548;8.658;2024-02-16T04:31:15;100150.06;;;11.77;100.00
29121;BME280;16191;49.548;8.658;2024-02-16T04:33:42;100154.38;;;11.78;100.00
29121;BME280;16191;49.548;8.658;2024-02-16T04:36:08;100148.28;;;11.77;100.00
29121;BME280;16191;49.548;8.658;2024-02-16T04:38:35;100152.66;;;11.77;100.00
29121;BME280;16191;49.548;8.658;2024-02-16T04:41:04;100150.16;;;11.74;100.00
29121;BME280;16191;49.548;8.658;2024-02-16T04:43:31;100153.00;;;11.69;100.00
29121;BME280;16191;49.548;8.658;2024-02-16T04:45:58;100153.00;;;11.69;100.00
29121;BME280;16191;49.548;8.658;2024-02-16T04:48:26;100149.97;;;11.59;100.00
29121;BME280;16191;49.548;8.658;2024-02-16T04:50:52;100150.75;;;11.61;100.00
29121;BME280;16191;49.548;8.658;2024-02-16T04:53:19;100148.69;;;11.49;100.00
29121;BME280;16191;49.548;8.658;2024-02-16T04:55:46;100137.25;;;11.52;100.00
29121;BME280;16191;49.548;8.658;2024-02-16T04:58:12;100135.69;;;11.48;100.00
29121;BME280;16191;49.548;8.658;2024-02-16T05:00:39;100144.31;;;11.50;100.00
29121;BME280;16191;49.548;8.658;2024-02-16T05:03:06;100134.63;;;11.52;100.00
29121;BME280;16191;49.548;8.658;2024-02-16T05:05:33;100137.56;;;11.46;100.00
29121;BME280;16191;49.548;8.658;2024-02-16T05:08:00;100133.31;;;11.43;100.00
29121;BME280;16191;49.548;8.658;2024-02-16T05:10:27;100132.66;;;11.38;100.00
29121;BME280;16191;49.548;8.658;2024-02-16T05:12:54;100132.66;;;11.38;100.00
29121;BME280;16191;49.548;8.658;2024-02-16T05:15:22;100133.25;;;11.45;100.00
29121;BME280;16191;49.548;8.658;2024-02-16T05:17:48;100136.78;;;11.44;100.00
29121;BME280;16191;49.548;8.658;2024-02-16T05:20:16;100131.31;;;11.48;100.00
29121;BME280;16191;49.548;8.658;2024-02-16T05:22:47;100130.56;;;11.46;100.00
29121;BME280;16191;49.548;8.658;2024-02-16T05:25:13;100135.69;;;11.48;100.00
29121;BME280;16191;49.548;8.658;2024-02-16T05:27:41;100134.03;;;11.47;100.00
29121;BME280;16191;49.548;8.658;2024-02-16T05:30:11;100130.84;;;11.40;100.00
29121;BME280;16191;49.548;8.658;2024-02-16T05:32:44;100136.97;;;11.39;100.00
29121;BME280;16191;49.548;8.658;2024-02-16T05:35:15;100132.34;;;11.46;100.00
29121;BME280;16191;49.548;8.658;2024-02-16T05:37:44;100134.16;;;11.44;100.00
29121;BME280;16191;49.548;8.658;2024-02-16T05:40:11;100142.06;;;11.42;100.00
29121;BME280;16191;49.548;8.658;2024-02-16T05:42:57;100145.53;;;11.43;100.00
29121;BME280;16191;49.548;8.658;2024-02-16T05:45:26;100141.09;;;11.45;100.00
29121;BME280;16191;49.548;8.658;2024-02-16T05:47:53;100140.38;;;11.41;100.00
29121;BME280;16191;49.548;8.658;2024-02-16T05:50:21;100140.72;;;11.52;100.00
29121;BME280;16191;49.548;8.658;2024-02-16T05:52:49;100144.25;;;11.51;100.00
29121;BME280;16191;49.548;8.658;2024-02-16T05:55:17;100145.94;;;11.52;100.00
29121;BME280;16191;49.548;8.658;2024-02-16T05:57:45;100149.31;;;11.54;100.00
29121;BME280;16191;49.548;8.658;2024-02-16T06:00:12;100155.06;;;11.62;100.00
29121;BME280;16191;49.548;8.658;2024-02-16T06:02:40;100151.66;;;11.60;100.00
29121;BME280;16191;49.548;8.658;2024-02-16T06:05:07;100158.38;;;11.66;100.00
29121;BME280;16191;49.548;8.658;2024-02-16T06:07:35;100154.06;;;11.65;100.00
29121;BME280;16191;49.548;8.658;2024-02-16T06:10:05;100164.38;;;11.68;100.00
29121;BME280;16191;49.548;8.658;2024-02-16T06:12:36;100153.16;;;11.66;100.00
29121;BME280;16191;49.548;8.658;2024-02-16T06:15:04;100157.41;;;11.68;100.00
29121;BME280;16191;49.548;8.658;2024-02-16T06:17:31;100162.63;;;11.68;100.00
29121;BME280;16191;49.548;8.658;2024-02-16T06:19:58;100162.44;;;11.72;100.00
29121;BME280;16191;49.548;8.658;2024-02-16T06:22:25;100168.06;;;11.83;100.00
29121;BME280;16191;49.548;8.658;2024-02-16T06:24:51;100166.16;;;11.86;100.00
29121;BME280;16191;49.548;8.658;2024-02-16T06:27:18;100172.78;;;11.93;100.00
29121;BME280;16191;49.548;8.658;2024-02-16T06:29:46;100169.63;;;11.87;100.00
29121;BME280;16191;49.548;8.658;2024-02-16T06:32:12;100173.94;;;11.88;100.00
29121;BME280;16191;49.548;8.658;2024-02-16T06:34:40;100175.63;;;11.89;100.00
29121;BME280;16191;49.548;8.658;2024-02-16T06:37:07;100187.69;;;11.91;100.00
29121;BME280;16191;49.548;8.658;2024-02-16T06:39:34;100193.22;;;11.85;100.00
29121;BME280;16191;49.548;8.658;2024-02-16T06:42:00;100191.56;;;12.01;100.00
29121;BME280;16191;49.548;8.658;2024-02-16T06:44:27;100186.41;;;12.00;100.00
29121;BME280;16191;49.548;8.658;2024-02-16T06:46:54;100193.97;;;12.06;100.00
29121;BME280;16191;49.548;8.658;2024-02-16T06:49:20;100196.81;;;12.01;100.00
29121;BME280;16191;49.548;8.658;2024-02-16T06:51:47;100199.69;;;12.14;100.00
29121;BME280;16191;49.548;8.658;2024-02-16T06:54:14;100209.16;;;12.17;100.00
29121;BME280;16191;49.548;8.658;2024-02-16T06:56:41;100205.16;;;12.10;100.00
29121;BME280;16191;49.548;8.658;2024-02-16T06:59:07;100208.44;;;12.13;100.00
29121;BME280;16191;49.548;8.658;2024-02-16T07:01:35;100208.94;;;12.21;100.00
29121;BME280;16191;49.548;8.658;2024-02-16T07:04:03;100211.63;;;12.20;100.00
29121;BME280;16191;49.548;8.658;2024-02-16T07:06:29;100207.72;;;12.28;100.00
29121;BME280;16191;49.548;8.658;2024-02-16T07:08:56;100215.16;;;12.19;100.00
29121;BME280;16191;49.548;8.658;2024-02-16T07:11:23;100212.47;;;12.20;100.00
29121;BME280;16191;49.548;8.658;2024-02-16T07:13:50;100215.66;;;12.27;100.00
29121;BME280;16191;49.548;8.658;2024-02-16T07:16:17;100212.56;;;12.36;100.00
29121;BME280;16191;49.548;8.658;2024-02-16T07:18:44;100222.69;;;12.44;100.00
29121;BME280;16191;49.548;8.658;2024-02-16T07:21:11;100229.31;;;12.51;100.00
29121;BME280;16191;49.548;8.658;2024-02-16T07:23:38;100232.38;;;12.42;100.00
29121;BME280;16191;49.548;8.658;2024-02-16T07:26:05;100231.22;;;12.47;100.00
29121;BME280;16191;49.548;8.658;2024-02-16T07:28:33;100240.94;;;12.62;100.00
29121;BME280;16191;49.548;8.658;2024-02-16T07:31:00;100243.63;;;12.61;100.00
29121;BME280;16191;49.548;8.658;2024-02-16T07:33:27;100258.69;;;12.56;100.00
29121;BME280;16191;49.548;8.658;2024-02-16T07:35:55;100263.94;;;12.56;100.00
29121;BME280;16191;49.548;8.658;2024-02-16T07:38:22;100260.97;;;12.63;100.00
29121;BME280;16191;49.548;8.658;2024-02-16T07:40:49;100272.41;;;12.61;100.00
29121;BME280;16191;49.548;8.658;2024-02-16T07:43:17;100266.53;;;12.75;100.00
29121;BME280;16191;49.548;8.658;2024-02-16T07:45:44;100257.69;;;12.77;100.00
29121;BME280;16191;49.548;8.658;2024-02-16T07:48:11;100266.81;;;12.68;100.00
29121;BME280;16191;49.548;8.658;2024-02-16T07:50:38;100265.19;;;12.66;100.00
29121;BME280;16191;49.548;8.658;2024-02-16T07:53:05;100269.28;;;12.72;100.00
29121;BME280;16191;49.548;8.658;2024-02-16T07:55:32;100267.44;;;12.74;100.00
29121;BME280;16191;49.548;8.658;2024-02-16T07:57:59;100270.84;;;12.76;100.00
29121;BME280;16191;49.548;8.658;2024-02-16T08:00:25;100278.69;;;12.76;100.00
29121;BME280;16191;49.548;8.658;2024-02-16T08:02:52;100282.16;;;12.76;100.00
29121;BME280;16191;49.548;8.658;2024-02-16T08:05:19;100278.84;;;12.73;100.00
29121;BME280;16191;49.548;8.658;2024-02-16T08:07:46;100276.09;;;12.76;100.00
29121;BME280;16191;49.548;8.658;2024-02-16T08:10:19;100270.06;;;12.74;100.00
29121;BME280;16191;49.548;8.658;2024-02-16T08:12:49;100273.47;;;12.76;100.00
29121;BME280;16191;49.548;8.658;2024-02-16T08:15:16;100270.66;;;12.79;100.00
29121;BME280;16191;49.548;8.658;2024-02-16T08:17:49;100270.44;;;12.83;100.00
29121;BME280;16191;49.548;8.658;2024-02-16T08:20:18;100277.31;;;12.86;100.00
29121;BME280;16191;49.548;8.658;2024-02-16T08:22:44;100280.69;;;12.88;100.00
29121;BME280;16191;49.548;8.658;2024-02-16T08:25:11;100277.94;;;12.91;100.00
29121;BME280;16191;49.548;8.658;2024-02-16T08:27:38;100281.19;;;12.96;100.00
29121;BME280;16191;49.548;8.658;2024-02-16T08:30:06;100272.13;;;13.01;100.00
29121;BME280;16191;49.548;8.658;2024-02-16T08:32:32;100273.75;;;13.04;100.00
29121;BME280;16191;49.548;8.658;2024-02-16T08:34:59;100280.63;;;13.07;100.00
29121;BME280;16191;49.548;8.658;2024-02-16T08:37:27;100284.25;;;13.04;100.00
29121;BME280;16191;49.548;8.658;2024-02-16T08:39:53;100290.31;;;13.04;100.00
29121;BME280;16191;49.548;8.658;2024-02-16T08:42:20;100296.97;;;13.12;100.00
29121;BME280;16191;49.548;8.658;2024-02-16T08:44:49;100298.47;;;13.17;100.00
29121;BME280;16191;49.548;8.658;2024-02-16T08:47:16;100301.16;;;13.16;100.00
29121;BME280;16191;49.548;8.658;2024-02-16T08:49:42;100295.19;;;13.12;100.00
29121;BME280;16191;49.548;8.658;2024-02-16T08:52:09;100298.06;;;13.25;100.00
29121;BME280;16191;49.548;8.658;2024-02-16T08:54:36;100303.38;;;13.23;100.00
29121;BME280;16191;49.548;8.658;2024-02-16T08:57:04;100295.50;;;13.23;100.00
29121;BME280;16191;49.548;8.658;2024-02-16T08:59:32;100291.88;;;13.26;100.00
29121;BME280;16191;49.548;8.658;2024-02-16T09:02:01;100286.28;;;13.33;100.00
29121;BME280;16191;49.548;8.658;2024-02-16T09:04:27;100287.72;;;13.39;100.00
29121;BME280;16191;49.548;8.658;2024-02-16T09:06:54;100285.47;;;13.49;100.00
29121;BME280;16191;49.548;8.658;2024-02-16T09:09:21;100289.00;;;13.48;100.00
29121;BME280;16191;49.548;8.658;2024-02-16T09:11:49;100288.84;;;13.51;100.00
29121;BME280;16191;49.548;8.658;2024-02-16T09:14:16;100303.59;;;13.53;100.00
29121;BME280;16191;49.548;8.658;2024-02-16T09:16:42;100294.03;;;13.52;100.00
29121;BME280;16191;49.548;8.658;2024-02-16T09:19:09;100295.41;;;13.59;100.00
29121;BME280;16191;49.548;8.658;2024-02-16T09:21:36;100295.84;;;13.67;100.00
29121;BME280;16191;49.548;8.658;2024-02-16T09:24:03;100308.28;;;13.64;100.00
29121;BME280;16191;49.548;8.658;2024-02-16T09:26:31;100301.22;;;13.64;100.00
29121;BME280;16191;49.548;8.658;2024-02-16T09:29:00;100309.03;;;13.66;100.00
29121;BME280;16191;49.548;8.658;2024-02-16T09:31:26;100301.22;;;13.64;100.00
29121;BME280;16191;49.548;8.658;2024-02-16T09:33:53;100305.66;;;13.64;100.00
29121;BME280;16191;49.548;8.658;2024-02-16T09:36:20;100317.50;;;13.71;100.00
29121;BME280;16191;49.548;8.658;2024-02-16T09:38:48;100313.63;;;13.78;100.00
29121;BME280;16191;49.548;8.658;2024-02-16T09:41:14;100323.03;;;13.82;100.00
29121;BME280;16191;49.548;8.658;2024-02-16T09:43:44;100328.69;;;13.75;100.00
29121;BME280;16191;49.548;8.658;2024-02-16T09:46:10;100324.75;;;13.83;100.00
29121;BME280;16191;49.548;8.658;2024-02-16T09:48:39;100328.03;;;13.87;100.00
29121;BME280;16191;49.548;8.658;2024-02-16T09:51:07;100337.59;;;13.88;100.00
29121;BME280;16191;49.548;8.658;2024-02-16T09:53:34;100315.75;;;13.87;100.00
29121;BME280;16191;49.548;8.658;2024-02-16T09:56:01;100330.00;;;13.99;100.00
29121;BME280;16191;49.548;8.658;2024-02-16T09:58:28;100334.41;;;13.98;100.00
29121;BME280;16191;49.548;8.658;2024-02-16T10:00:55;100332.88;;;13.94;100.00
29121;BME280;16191;49.548;8.658;2024-02-16T10:06:04;100338.09;;;14.27;100.00
29121;BME280;16191;49.548;8.658;2024-02-16T10:08:32;100342.84;;;14.52;100.00
29121;BME280;16191;49.548;8.658;2024-02-16T10:11:01;100341.34;;;14.64;100.00
29121;BME280;16191;49.548;8.658;2024-02-16T10:13:28;100345.50;;;14.68;100.00
29121;BME280;16191;49.548;8.658;2024-02-16T10:16:09;100357.41;;;14.89;100.00
29121;BME280;16191;49.548;8.658;2024-02-16T10:18:37;100359.16;;;15.04;100.00
29121;BME280;16191;49.548;8.658;2024-02-16T10:21:04;100364.84;;;15.13;100.00
29121;BME280;16191;49.548;8.658;2024-02-16T10:23:31;100366.72;;;15.25;100.00
29121;BME280;16191;49.548;8.658;2024-02-16T10:26:01;100374.56;;;15.40;100.00
29121;BME280;16191;49.548;8.658;2024-02-16T10:28:29;100377.13;;;15.72;100.00
29121;BME280;16191;49.548;8.658;2024-02-16T10:30:58;100365.84;;;15.84;100.00
29121;BME280;16191;49.548;8.658;2024-02-16T10:33:29;100369.81;;;15.91;100.00
29121;BME280;16191;49.548;8.658;2024-02-16T10:35:56;100362.28;;;16.14;100.00
29121;BME280;16191;49.548;8.658;2024-02-16T10:38:27;100355.88;;;16.18;100.00
29121;BME280;16191;49.548;8.658;2024-02-16T10:40:56;100363.63;;;16.48;100.00
29121;BME280;16191;49.548;8.658;2024-02-16T10:43:22;100365.97;;;16.52;100.00
29121;BME280;16191;49.548;8.658;2024-02-16T10:45:49;100364.53;;;16.75;100.00
29121;BME280;16191;49.548;8.658;2024-02-16T10:48:19;100374.69;;;16.81;100.00
29121;BME280;16191;49.548;8.658;2024-02-16T10:50:46;100371.16;;;16.68;100.00
29121;BME280;16191;49.548;8.658;2024-02-16T10:53:26;100374.69;;;16.81;100.00
29121;BME280;16191;49.548;8.658;2024-02-16T10:55:57;100374.84;;;16.65;100.00
29121;BME280;16191;49.548;8.658;2024-02-16T10:58:27;100378.78;;;16.58;100.00
29121;BME280;16191;49.548;8.658;2024-02-16T11:00:55;100370.63;;;16.34;100.00
29121;BME280;16191;49.548;8.658;2024-02-16T11:03:23;100369.13;;;16.30;100.00
29121;BME280;16191;49.548;8.658;2024-02-16T11:05:54;100378.22;;;16.53;100.00
29121;BME280;16191;49.548;8.658;2024-02-16T11:08:25;100368.88;;;16.62;100.00
29121;BME280;16191;49.548;8.658;2024-02-16T11:11:03;100381.75;;;16.81;100.00
29121;BME280;16191;49.548;8.658;2024-02-16T11:13:34;100370.59;;;16.90;100.00
29121;BME280;16191;49.548;8.658;2024-02-16T11:16:03;100371.13;;;17.09;100.00
29121;BME280;16191;49.548;8.658;2024-02-16T11:18:37;100372.94;;;17.21;100.00
29121;BME280;16191;49.548;8.658;2024-02-16T11:21:06;100371.00;;;17.50;100.00
29121;BME280;16191;49.548;8.658;2024-02-16T11:23:35;100375.91;;;17.69;100.00
29121;BME280;16191;49.548;8.658;2024-02-16T11:26:09;100366.72;;;17.87;100.00
29121;BME280;16191;49.548;8.658;2024-02-16T11:28:41;100372.41;;;18.06;100.00
29121;BME280;16191;49.548;8.658;2024-02-16T11:31:08;100366.50;;;18.15;100.00
29121;BME280;16191;49.548;8.658;2024-02-16T11:33:34;100365.97;;;17.98;100.00
29121;BME280;16191;49.548;8.658;2024-02-16T11:36:10;100370.78;;;18.29;100.00
29121;BME280;16191;49.548;8.658;2024-02-16T11:38:38;100369.50;;;18.60;100.00
29121;BME280;16191;49.548;8.658;2024-02-16T11:41:06;100371.03;;;18.01;100.00
29121;BME280;16191;49.548;8.658;2024-02-16T11:43:36;100365.88;;;17.87;100.00
29121;BME280;16191;49.548;8.658;2024-02-16T11:46:13;100377.38;;;17.98;100.00
29121;BME280;16191;49.548;8.658;2024-02-16T11:48:40;100374.66;;;17.74;100.00
29121;BME280;16191;49.548;8.658;2024-02-16T11:51:07;100377.03;;;17.52;100.00
29121;BME280;16191;49.548;8.658;2024-02-16T11:53:34;100375.59;;;17.34;100.00
29121;BME280;16191;49.548;8.658;2024-02-16T11:56:00;100361.41;;;17.62;100.00
29121;BME280;16191;49.548;8.658;2024-02-16T11:58:27;100368.38;;;17.63;100.00
29121;BME280;16191;49.548;8.658;2024-02-16T12:00:55;100361.66;;;17.71;100.00
29121;BME280;16191;49.548;8.658;2024-02-16T12:03:27;100362.59;;;17.70;100.00
29121;BME280;16191;49.548;8.658;2024-02-16T12:05:56;100350.66;;;18.03;100.00
29121;BME280;16191;49.548;8.658;2024-02-16T12:08:24;100359.41;;;18.03;100.00
29121;BME280;16191;49.548;8.658;2024-02-16T12:10:51;100358.25;;;18.07;100.00
29121;BME280;16191;49.548;8.658;2024-02-16T12:13:19;100359.28;;;18.30;100.00
29121;BME280;16191;49.548;8.658;2024-02-16T12:15:48;100355.94;;;18.15;100.00
29121;BME280;16191;49.548;8.658;2024-02-16T12:18:22;100366.19;;;17.95;100.00
29121;BME280;16191;49.548;8.658;2024-02-16T12:21:05;100360.19;;;17.93;100.00
29121;BME280;16191;49.548;8.658;2024-02-16T12:23:33;100366.09;;;17.96;100.00
29121;BME280;16191;49.548;8.658;2024-02-16T12:26:01;100361.22;;;18.03;100.00
29121;BME280;16191;49.548;8.658;2024-02-16T12:28:30;100361.84;;;18.06;100.00
29121;BME280;16191;49.548;8.658;2024-02-16T12:31:00;100367.94;;;18.32;100.00
29121;BME280;16191;49.548;8.658;2024-02-16T12:33:30;100363.19;;;18.25;100.00
29121;BME280;16191;49.548;8.658;2024-02-16T12:35:57;100361.34;;;18.50;100.00
29121;BME280;16191;49.548;8.658;2024-02-16T12:38:24;100362.28;;;18.49;100.00
29121;BME280;16191;49.548;8.658;2024-02-16T12:40:50;100368.00;;;18.56;100.00
29121;BME280;16191;49.548;8.658;2024-02-16T12:43:17;100370.16;;;18.75;100.00
29121;BME280;16191;49.548;8.658;2024-02-16T12:45:45;100365.50;;;18.78;100.00
29121;BME280;16191;49.548;8.658;2024-02-16T12:48:12;100366.28;;;18.68;100.00